Sea Drift — WDC2818 — position and weather

sailwx.info

Track history (hours):
 
Tides and Currents Weather Stations Pressure Air Temp Water Temp Dewpoint Dewpoint Depression Visibility Wind Speed Wind Dir Waves Ship Positions

Sea Drift

More information available from US FCC via Universal Licensing System and Coast Guard Vessel Documentation Center.

Last reported at 2014-Sep-20 17:33 UTC. Time now 2014-Sep-20 18:07 UTC.
Position N 29°46' W 095°06'.

Length 23 m; draft 3 m.

Type: Towing. MMSI: 366998080.

Date/timePositionNaut miles runAvg speedWind from/ knotsBaromVisibWave heightAir tempDewpointWater temp
2014-Sep-20 17:33N 29°46' W 095°06'0 0.2
2014-Sep-20 16:31N 29°46' W 095°06'5 5.5
2014-Sep-20 15:33N 29°42' W 095°01'8 7.6
2014-Sep-20 14:33N 29°36' W 094°57'9 9.0
2014-Sep-20 13:33N 29°28' W 094°51'12 0.6
2014-Sep-19 17:15N 29°17' W 094°57'13 4.5
2014-Sep-19 14:19N 29°30' W 094°52'6 7.5
2014-Sep-19 13:33N 29°34' W 094°56'8 7.6
2014-Sep-19 12:33N 29°41' W 094°59'7 6.6
2014-Sep-19 11:33N 29°46' W 095°05'1 0.7
2014-Sep-19 10:31N 29°47' W 095°05'1 0.1
2014-Sep-19 06:32N 29°46' W 095°05'1 0.7
2014-Sep-19 05:22N 29°47' W 095°05'3 3.6
2014-Sep-19 04:33N 29°44' W 095°03'5 4.7
2014-Sep-19 03:33N 29°41' W 094°59'6 5.6
2014-Sep-19 02:33N 29°36' W 094°57'6 6.2
2014-Sep-19 01:33N 29°31' W 094°53'6 5.9
2014-Sep-19 00:33N 29°25' W 094°50'4 0.1
2014-Sep-17 22:28N 29°23' W 094°47'29 1.3
2014-Sep-17 00:14N 29°47' W 095°04'0 0.4
2014-Sep-16 23:28N 29°47' W 095°04'0 0.3
2014-Sep-16 22:31N 29°47' W 095°04'3 2.8
2014-Sep-16 21:32N 29°45' W 095°06'1 1.2
2014-Sep-16 20:33N 29°46' W 095°06'0 0.0
2014-Sep-16 18:26N 29°46' W 095°06'2 2.7
2014-Sep-16 17:33N 29°44' W 095°04'6 6.0
2014-Sep-16 16:33N 29°40' W 094°59'7 7.1
2014-Sep-16 15:33N 29°34' W 094°55'7 6.6
2014-Sep-16 14:33N 29°28' W 094°51'  
2014-Sep-14 07:27N 29°30' W 094°52'7 7.7
2014-Sep-14 06:32N 29°36' W 094°57'4 4.5
2014-Sep-14 05:33N 29°37' W 095°01'0 0.0
2014-Sep-14 04:33N 29°37' W 095°01'0 0.0
2014-Sep-14 03:33N 29°37' W 095°01'0 0.0
2014-Sep-14 02:33N 29°37' W 095°01'1 1.3
2014-Sep-14 01:33N 29°37' W 094°60'10 1.4
2014-Sep-13 18:32N 29°46' W 095°06'1 0.6
2014-Sep-13 17:33N 29°46' W 095°06'0 0.0
2014-Sep-13 16:33N 29°46' W 095°06'0 0.2
2014-Sep-13 13:29N 29°46' W 095°06'1 0.4
2014-Sep-13 11:13N 29°45' W 095°06'3 4.3
2014-Sep-13 10:32N 29°47' W 095°04'0 0.2
2014-Sep-13 09:24N 29°47' W 095°04'0 0.2
2014-Sep-13 08:29N 29°47' W 095°04'0 0.0
2014-Sep-13 07:33N 29°47' W 095°04'0 0.0
2014-Sep-13 06:32N 29°47' W 095°04'1 1.3
2014-Sep-13 05:33N 29°46' W 095°05'1 0.8
2014-Sep-13 04:28N 29°46' W 095°06'0 0.0
2014-Sep-13 03:33N 29°46' W 095°06'1 1.0
2014-Sep-13 02:33N 29°46' W 095°05'1 0.7
2014-Sep-13 01:32N 29°46' W 095°05'0 0.1
2014-Sep-12 21:31N 29°46' W 095°06'1 0.8
2014-Sep-12 20:33N 29°46' W 095°05'3 3.4
2014-Sep-12 19:33N 29°44' W 095°01'4 4.0
2014-Sep-12 18:28N 29°47' W 095°04'5 6.0
2014-Sep-12 17:33N 29°44' W 095°09'1 0.8
2014-Sep-12 16:19N 29°45' W 095°10'1 1.0
2014-Sep-12 15:31N 29°45' W 095°11'5 4.7
2014-Sep-12 14:24N 29°46' W 095°05'0 0.4
2014-Sep-12 13:19N 29°46' W 095°05'0 0.5
2014-Sep-12 12:33N 29°46' W 095°06'0 0.0
2014-Sep-12 11:33N 29°46' W 095°06'0 0.0
2014-Sep-12 10:33N 29°46' W 095°06'0 0.0
2014-Sep-12 09:33N 29°46' W 095°06'0 0.0
2014-Sep-12 08:33N 29°46' W 095°06'0 0.0
2014-Sep-12 07:33N 29°46' W 095°06'1 0.8
2014-Sep-12 06:33N 29°46' W 095°05'1 0.7
2014-Sep-12 05:29N 29°47' W 095°05'1 0.6
2014-Sep-12 04:25N 29°47' W 095°04'2 1.8
2014-Sep-12 03:22N 29°46' W 095°06'0 0.0
2014-Sep-12 02:29N 29°46' W 095°06'0 0.4
2014-Sep-12 01:21N 29°45' W 095°06'0 0.0
2014-Sep-12 00:31N 29°45' W 095°06'1 0.7
2014-Sep-11 23:33N 29°46' W 095°05'6 6.4
2014-Sep-11 22:33N 29°42' W 094°60'7 6.9
2014-Sep-11 21:33N 29°35' W 094°56'7 7.0
2014-Sep-11 20:33N 29°30' W 094°52'7 6.6
2014-Sep-11 19:32N 29°24' W 094°49'2 0.5
2014-Sep-11 16:24N 29°22' W 094°49'9 0.5
2014-Sep-10 22:26N 29°30' W 094°52'7 8.3
2014-Sep-10 21:33N 29°36' W 094°57'8 8.0
2014-Sep-10 20:33N 29°43' W 095°01'5 4.5
2014-Sep-10 19:29N 29°46' W 095°06'  
Track history (hours):
 
Tides and Currents Weather Stations Pressure Air Temp Water Temp Dewpoint Dewpoint Depression Visibility Wind Speed Wind Dir Waves Ship Positions

Sea Drift

More information available from US FCC via Universal Licensing System and Coast Guard Vessel Documentation Center.

Last reported at 2014-Sep-20 17:33 UTC. Time now 2014-Sep-20 18:07 UTC.
Position N 29°46' W 095°06'.

Length 23 m; draft 3 m.

Type: Towing. MMSI: 366998080.

Date/timePositionNaut miles runAvg speedWind from/ knotsBaromVisibWave heightAir tempDewpointWater temp
2014-Sep-20 17:33N 29°46' W 095°06'0 0.2
2014-Sep-20 16:31N 29°46' W 095°06'5 5.5
2014-Sep-20 15:33N 29°42' W 095°01'8 7.6
2014-Sep-20 14:33N 29°36' W 094°57'9 9.0
2014-Sep-20 13:33N 29°28' W 094°51'12 0.6
2014-Sep-19 17:15N 29°17' W 094°57'13 4.5
2014-Sep-19 14:19N 29°30' W 094°52'6 7.5
2014-Sep-19 13:33N 29°34' W 094°56'8 7.6
2014-Sep-19 12:33N 29°41' W 094°59'7 6.6
2014-Sep-19 11:33N 29°46' W 095°05'1 0.7
2014-Sep-19 10:31N 29°47' W 095°05'1 0.1
2014-Sep-19 06:32N 29°46' W 095°05'1 0.7
2014-Sep-19 05:22N 29°47' W 095°05'3 3.6
2014-Sep-19 04:33N 29°44' W 095°03'5 4.7
2014-Sep-19 03:33N 29°41' W 094°59'6 5.6
2014-Sep-19 02:33N 29°36' W 094°57'6 6.2
2014-Sep-19 01:33N 29°31' W 094°53'6 5.9
2014-Sep-19 00:33N 29°25' W 094°50'4 0.1
2014-Sep-17 22:28N 29°23' W 094°47'29 1.3
2014-Sep-17 00:14N 29°47' W 095°04'0 0.4
2014-Sep-16 23:28N 29°47' W 095°04'0 0.3
2014-Sep-16 22:31N 29°47' W 095°04'3 2.8
2014-Sep-16 21:32N 29°45' W 095°06'1 1.2
2014-Sep-16 20:33N 29°46' W 095°06'0 0.0
2014-Sep-16 18:26N 29°46' W 095°06'2 2.7
2014-Sep-16 17:33N 29°44' W 095°04'6 6.0
2014-Sep-16 16:33N 29°40' W 094°59'7 7.1
2014-Sep-16 15:33N 29°34' W 094°55'7 6.6
2014-Sep-16 14:33N 29°28' W 094°51'  
2014-Sep-14 07:27N 29°30' W 094°52'7 7.7
2014-Sep-14 06:32N 29°36' W 094°57'4 4.5
2014-Sep-14 05:33N 29°37' W 095°01'0 0.0
2014-Sep-14 04:33N 29°37' W 095°01'0 0.0
2014-Sep-14 03:33N 29°37' W 095°01'0 0.0
2014-Sep-14 02:33N 29°37' W 095°01'1 1.3
2014-Sep-14 01:33N 29°37' W 094°60'10 1.4
2014-Sep-13 18:32N 29°46' W 095°06'1 0.6
2014-Sep-13 17:33N 29°46' W 095°06'0 0.0
2014-Sep-13 16:33N 29°46' W 095°06'0 0.2
2014-Sep-13 13:29N 29°46' W 095°06'1 0.4
2014-Sep-13 11:13N 29°45' W 095°06'3 4.3
2014-Sep-13 10:32N 29°47' W 095°04'0 0.2
2014-Sep-13 09:24N 29°47' W 095°04'0 0.2
2014-Sep-13 08:29N 29°47' W 095°04'0 0.0
2014-Sep-13 07:33N 29°47' W 095°04'0 0.0
2014-Sep-13 06:32N 29°47' W 095°04'1 1.3
2014-Sep-13 05:33N 29°46' W 095°05'1 0.8
2014-Sep-13 04:28N 29°46' W 095°06'0 0.0
2014-Sep-13 03:33N 29°46' W 095°06'1 1.0
2014-Sep-13 02:33N 29°46' W 095°05'1 0.7
2014-Sep-13 01:32N 29°46' W 095°05'0 0.1
2014-Sep-12 21:31N 29°46' W 095°06'1 0.8
2014-Sep-12 20:33N 29°46' W 095°05'3 3.4
2014-Sep-12 19:33N 29°44' W 095°01'4 4.0
2014-Sep-12 18:28N 29°47' W 095°04'5 6.0
2014-Sep-12 17:33N 29°44' W 095°09'1 0.8
2014-Sep-12 16:19N 29°45' W 095°10'1 1.0
2014-Sep-12 15:31N 29°45' W 095°11'5 4.7
2014-Sep-12 14:24N 29°46' W 095°05'0 0.4
2014-Sep-12 13:19N 29°46' W 095°05'0 0.5
2014-Sep-12 12:33N 29°46' W 095°06'0 0.0
2014-Sep-12 11:33N 29°46' W 095°06'0 0.0
2014-Sep-12 10:33N 29°46' W 095°06'0 0.0
2014-Sep-12 09:33N 29°46' W 095°06'0 0.0
2014-Sep-12 08:33N 29°46' W 095°06'0 0.0
2014-Sep-12 07:33N 29°46' W 095°06'1 0.8
2014-Sep-12 06:33N 29°46' W 095°05'1 0.7
2014-Sep-12 05:29N 29°47' W 095°05'1 0.6
2014-Sep-12 04:25N 29°47' W 095°04'2 1.8
2014-Sep-12 03:22N 29°46' W 095°06'0 0.0
2014-Sep-12 02:29N 29°46' W 095°06'0 0.4
2014-Sep-12 01:21N 29°45' W 095°06'0 0.0
2014-Sep-12 00:31N 29°45' W 095°06'1 0.7
2014-Sep-11 23:33N 29°46' W 095°05'6 6.4
2014-Sep-11 22:33N 29°42' W 094°60'7 6.9
2014-Sep-11 21:33N 29°35' W 094°56'7 7.0
2014-Sep-11 20:33N 29°30' W 094°52'7 6.6
2014-Sep-11 19:32N 29°24' W 094°49'2 0.5
2014-Sep-11 16:24N 29°22' W 094°49'9 0.5
2014-Sep-10 22:26N 29°30' W 094°52'7 8.3
2014-Sep-10 21:33N 29°36' W 094°57'8 8.0
2014-Sep-10 20:33N 29°43' W 095°01'5 4.5
2014-Sep-10 19:29N 29°46' W 095°06'  

Dump ship's entire track history